logo dgac
Viernes 18 de Junio del 2021
Buscar por aerodromo o helipuerto
Ingrese nombre de aeródromo, localidad o designador OACI:

Aeródromo: Mataveri (PUB) (SCIP)

Ubicación: Isla de Pascua, V Región, Chile (27º 09' 53'' S, 109º 25' 19'' W) Ver ubicación en el mapa

Pistas

Orientación Dimensión Pendiente Superficie Resistencia APCH THR RWY PAPI
10/28 3300 x 45 0,90 ASPH 65 F/C/W/T
Horas de operación O/R
Elevación 69 m / 227 ft
Otra Información Adm : D.G.A.C
Uso : PUB
Ubicado a 500 m S Hanga Roa

TEL/FAX(56)322100237 / Fax: 322100245

Otra información ver AIP-Chile Volumen I AD 2.6-1 SCIP

CCCM/FCCV Descargar
andera de Chile
Mapa de  Mataveri (PUB) (SCIP)

Último METAR

METAR SCIP 182100Z 14012KT 090V190 9999 BKN025 19/13 Q1024 NOSIG

Último TAF

TAF SCIP 181608Z 1818/1918 14015KT 9999 SCT025 BKN050 TX19/1818Z TN16/1906Z TEMPO 1818/1900 7000 -SHRA SCT015 BKN035 BECMG 1902/1904 12005KT TEMPO 1907/1912 7000 -SHRA SCT015 BKN035 BECMG 1916/1918 15010KT

Últimas fotos cámaras

Imagen aerodromo  Mataveri (PUB) (SCIP) Este tomada el 18-06-2021 08:21:12 Imagen aerodromo  Mataveri (PUB) (SCIP) S-Oeste tomada el 18-06-2021 08:21:13 Imagen aerodromo  Mataveri (PUB) (SCIP) Oeste tomada el 18-06-2021 08:21:12

Último NOTAM

B0786/21 NOTAMR B0642/21 Q)SCIZ/QCAAS/IV/B/AE/000/999/2710S10925W005 A)SCIP B)2106181754 C)2107191800 E)A/G FAC APP/TWR PRI FREQ 127.3MHZ, GNDC FREQ 121.9 MHZ AND EMERG FREQ 121.5MHZ U/S DUE TO COMMUNICATIONS CONSOLE FAILURE